createdAt,value
2018-01-06T00:02:25.137Z,19.20
2018-01-06T00:04:59.148Z,19.20
2018-01-06T00:07:31.880Z,19.40
2018-01-06T00:10:04.243Z,19.20
2018-01-06T00:12:37.517Z,19.10
2018-01-06T00:15:10.244Z,19.10
2018-01-06T00:17:42.695Z,18.90
2018-01-06T00:20:16.090Z,19.10
2018-01-06T00:22:48.560Z,19.10
2018-01-06T00:25:21.039Z,19.10
2018-01-06T00:27:53.538Z,19.00
2018-01-06T00:30:26.056Z,19.00
2018-01-06T00:32:59.329Z,19.00
2018-01-06T00:35:31.664Z,19.00
2018-01-06T00:38:04.004Z,19.00
2018-01-06T00:40:36.411Z,19.00
2018-01-06T00:43:09.020Z,18.90
2018-01-06T00:45:41.438Z,18.90
2018-01-06T00:48:14.015Z,18.90
2018-01-06T00:50:46.520Z,18.90
2018-01-06T00:53:19.769Z,18.90
2018-01-06T00:55:52.561Z,19.00
2018-01-06T00:58:25.131Z,18.90
2018-01-06T01:00:57.449Z,19.00
2018-01-06T01:03:30.124Z,19.10
2018-01-06T01:06:02.613Z,19.20
2018-01-06T01:08:34.995Z,19.20
2018-01-06T01:11:07.453Z,19.20
2018-01-06T01:13:39.832Z,19.20
2018-01-06T01:16:13.070Z,19.20
2018-01-06T01:18:45.964Z,18.90
2018-01-06T01:21:18.410Z,19.20
2018-01-06T01:23:50.947Z,19.20
2018-01-06T01:26:23.337Z,19.20
2018-01-06T01:28:55.948Z,19.10
2018-01-06T01:31:28.680Z,19.20
2018-01-06T01:34:01.236Z,19.10
2018-01-06T01:36:35.309Z,19.20
2018-01-06T01:39:08.076Z,18.90
2018-01-06T01:41:41.300Z,19.10
2018-01-06T01:44:14.758Z,19.10
2018-01-06T01:46:47.445Z,19.00
2018-01-06T01:49:19.846Z,19.10
2018-01-06T01:51:52.434Z,19.10
2018-01-06T01:54:24.898Z,19.10
2018-01-06T01:56:57.524Z,19.10
2018-01-06T01:59:30.768Z,19.10
2018-01-06T02:02:04.389Z,19.10
2018-01-06T02:04:37.182Z,19.30
2018-01-06T02:07:09.600Z,19.10
2018-01-06T02:09:42.064Z,19.00
2018-01-06T02:12:15.320Z,19.00
2018-01-06T02:14:48.057Z,18.80
2018-01-06T02:17:20.644Z,19.00
2018-01-06T02:19:53.123Z,19.00
2018-01-06T02:22:25.589Z,19.10
2018-01-06T02:24:58.182Z,19.00
2018-01-06T02:27:30.524Z,19.00
2018-01-06T02:30:02.958Z,19.00
2018-01-06T02:32:36.954Z,19.00
2018-01-06T02:35:09.686Z,19.20
2018-01-06T02:37:42.177Z,19.00
2018-01-06T02:40:14.867Z,19.00
2018-01-06T02:42:47.334Z,19.00
2018-01-06T02:45:20.189Z,19.00
2018-01-06T02:47:52.771Z,19.00
2018-01-06T02:50:26.689Z,19.00
2018-01-06T02:52:59.388Z,19.30
2018-01-06T02:55:31.800Z,18.90
2018-01-06T02:58:04.341Z,18.90
2018-01-06T03:00:37.616Z,18.90
2018-01-06T03:03:10.329Z,18.70
2018-01-06T03:05:42.704Z,18.80
2018-01-06T03:08:15.066Z,18.80
2018-01-06T03:10:47.579Z,18.80
2018-01-06T03:13:20.021Z,18.80
2018-01-06T03:15:52.523Z,18.80
2018-01-06T03:18:26.556Z,18.70
2018-01-06T03:20:59.329Z,18.60
2018-01-06T03:23:31.722Z,18.70
2018-01-06T03:26:04.925Z,18.70
2018-01-06T03:28:37.855Z,18.90
2018-01-06T03:31:10.540Z,18.70
2018-01-06T03:33:43.219Z,18.70
2018-01-06T03:36:15.761Z,18.70
2018-01-06T03:38:49.638Z,18.70
2018-01-06T03:41:22.847Z,18.80
2018-01-06T03:43:55.990Z,18.60
2018-01-06T03:46:29.293Z,18.60
2018-01-06T03:49:02.155Z,18.70
2018-01-06T03:51:34.533Z,18.70
2018-01-06T03:54:07.129Z,18.60
2018-01-06T03:56:39.707Z,18.60
2018-01-06T03:59:12.260Z,18.60
2018-01-06T04:01:45.017Z,18.60
2018-01-06T04:04:17.545Z,18.60
2018-01-06T04:06:49.962Z,18.60
2018-01-06T04:09:22.568Z,18.60
2018-01-06T04:11:55.056Z,18.60
2018-01-06T04:14:27.634Z,18.30
2018-01-06T04:17:00.893Z,18.60
2018-01-06T04:19:33.811Z,18.60
2018-01-06T04:22:07.092Z,18.50
2018-01-06T04:24:39.840Z,18.40
2018-01-06T04:27:12.378Z,18.50
2018-01-06T04:32:17.105Z,18.30
2018-01-06T04:34:50.229Z,18.50
2018-01-06T04:37:22.608Z,18.50
2018-01-06T04:39:55.052Z,18.30
2018-01-06T04:42:27.712Z,18.70
2018-01-06T04:45:00.093Z,18.50
2018-01-06T04:47:34.297Z,18.10
2018-01-06T04:50:07.176Z,18.50
2018-01-06T04:52:39.784Z,18.50
2018-01-06T04:55:12.269Z,18.50
2018-01-06T04:57:44.808Z,18.40
2018-01-06T05:00:17.340Z,18.50
2018-01-06T05:02:50.775Z,18.40
2018-01-06T05:05:23.603Z,18.80
2018-01-06T05:07:56.856Z,18.40
2018-01-06T05:10:29.429Z,18.80
2018-01-06T05:13:01.977Z,18.50
2018-01-06T05:15:34.677Z,18.40
2018-01-06T05:18:07.008Z,18.40
2018-01-06T05:20:39.380Z,18.40
2018-01-06T05:23:12.539Z,18.40
2018-01-06T05:25:45.361Z,18.20
2018-01-06T05:28:17.843Z,18.40
2018-01-06T05:30:50.939Z,18.40
2018-01-06T05:33:23.939Z,18.40
2018-01-06T05:35:56.788Z,18.40
2018-01-06T05:38:30.061Z,18.30
2018-01-06T05:41:03.441Z,18.30
2018-01-06T05:43:36.511Z,17.80
2018-01-06T05:46:09.931Z,18.30
2018-01-06T05:48:42.738Z,18.20
2018-01-06T05:51:15.928Z,18.30
2018-01-06T05:53:49.313Z,18.40
2018-01-06T05:56:21.931Z,18.20
2018-01-06T05:58:54.356Z,18.80
2018-01-06T06:01:27.032Z,19.10
2018-01-06T06:04:00.237Z,19.30
2018-01-06T06:06:33.069Z,18.90
2018-01-06T06:09:05.549Z,19.60
2018-01-06T06:11:39.100Z,20.00
2018-01-06T06:14:11.640Z,20.20
2018-01-06T06:16:44.186Z,20.20
2018-01-06T06:19:16.609Z,20.30
2018-01-06T06:21:50.558Z,20.50
2018-01-06T06:24:23.630Z,20.50
2018-01-06T06:26:56.182Z,20.70
2018-01-06T06:29:29.051Z,20.80
2018-01-06T06:32:02.081Z,20.90
2018-01-06T06:34:35.915Z,21.10
2018-01-06T06:37:08.632Z,21.20
2018-01-06T06:39:41.344Z,21.20
2018-01-06T06:42:13.719Z,21.30
2018-01-06T06:44:46.185Z,21.30
2018-01-06T06:47:19.289Z,21.40
2018-01-06T06:49:52.056Z,21.60
2018-01-06T06:52:24.352Z,21.40
2018-01-06T06:54:57.313Z,21.40
2018-01-06T06:57:29.971Z,21.40
2018-01-06T07:00:02.648Z,21.30
2018-01-06T07:02:35.893Z,21.30
2018-01-06T07:05:08.440Z,21.30
2018-01-06T07:07:40.793Z,21.30
2018-01-06T07:10:13.953Z,21.20
2018-01-06T07:12:46.577Z,21.30
2018-01-06T07:15:19.195Z,21.10
2018-01-06T07:17:52.368Z,20.90
2018-01-06T07:20:25.232Z,20.90
2018-01-06T07:22:57.594Z,20.80
2018-01-06T07:25:30.928Z,20.80
2018-01-06T07:28:04.346Z,20.90
2018-01-06T07:30:37.179Z,21.20
2018-01-06T07:33:09.695Z,20.90
2018-01-06T07:35:42.158Z,20.70
2018-01-06T07:38:14.856Z,20.60
2018-01-06T07:40:47.523Z,20.80
2018-01-06T07:43:19.911Z,20.80
2018-01-06T07:45:52.490Z,20.80
2018-01-06T07:48:24.912Z,20.80
2018-01-06T07:50:57.304Z,20.70
2018-01-06T07:53:30.343Z,20.70
2018-01-06T07:56:03.031Z,20.60
2018-01-06T07:58:35.433Z,20.60
2018-01-06T08:01:08.699Z,20.70
2018-01-06T08:03:41.929Z,21.00
2018-01-06T08:06:14.425Z,20.60
2018-01-06T08:08:46.917Z,20.70
2018-01-06T08:11:19.397Z,20.70
2018-01-06T08:13:51.952Z,20.60
2018-01-06T08:16:25.797Z,21.00
2018-01-06T08:18:58.957Z,21.00
2018-01-06T08:21:31.500Z,20.90
2018-01-06T08:24:04.037Z,21.00
2018-01-06T08:26:36.500Z,21.10
2018-01-06T08:29:09.216Z,21.10
2018-01-06T08:31:41.777Z,21.20
2018-01-06T08:34:14.508Z,21.30
2018-01-06T08:36:47.154Z,21.50
2018-01-06T08:39:19.616Z,21.60
2018-01-06T08:41:52.822Z,21.90
2018-01-06T08:44:25.506Z,21.70
2018-01-06T08:46:58.441Z,22.00
2018-01-06T08:49:31.007Z,21.60
2018-01-06T08:52:03.604Z,21.40
2018-01-06T08:54:36.064Z,21.40
2018-01-06T08:57:08.844Z,21.40
2018-01-06T08:59:41.320Z,21.40
2018-01-06T09:02:15.088Z,20.90
2018-01-06T09:04:47.532Z,21.10
2018-01-06T09:07:21.168Z,20.80
2018-01-06T09:09:54.652Z,20.70
2018-01-06T09:12:28.297Z,20.70
2018-01-06T09:15:00.979Z,20.60
2018-01-06T09:17:33.363Z,20.70
2018-01-06T09:20:06.025Z,20.80
2018-01-06T09:22:38.628Z,20.80
2018-01-06T09:25:11.933Z,20.80
2018-01-06T09:27:44.529Z,20.80
2018-01-06T09:30:17.304Z,20.90
2018-01-06T09:32:49.720Z,21.00
2018-01-06T09:35:23.765Z,20.90
2018-01-06T09:37:57.225Z,20.90
2018-01-06T09:40:29.849Z,20.90
2018-01-06T09:43:03.099Z,20.90
2018-01-06T09:45:35.744Z,21.00
2018-01-06T09:48:08.232Z,21.10
2018-01-06T09:50:40.569Z,21.20
2018-01-06T09:53:13.061Z,21.20
2018-01-06T09:55:45.430Z,21.30
2018-01-06T09:58:18.824Z,21.40
2018-01-06T10:00:51.524Z,21.60
2018-01-06T10:03:25.681Z,21.50
2018-01-06T10:05:58.341Z,21.90
2018-01-06T10:08:30.801Z,21.50
2018-01-06T10:11:03.200Z,21.70
2018-01-06T10:13:35.770Z,22.00
2018-01-06T10:16:08.197Z,21.70
2018-01-06T10:18:41.504Z,21.70
2018-01-06T10:21:14.729Z,21.70
2018-01-06T10:23:47.298Z,21.90
2018-01-06T10:26:19.739Z,21.60
2018-01-06T10:28:52.103Z,21.60
2018-01-06T10:31:24.567Z,21.70
2018-01-06T10:33:57.029Z,21.70
2018-01-06T10:36:29.429Z,21.70
2018-01-06T10:39:03.287Z,22.10
2018-01-06T10:41:36.630Z,22.20
2018-01-06T10:44:09.333Z,22.50
2018-01-06T10:46:42.589Z,22.30
2018-01-06T10:49:15.484Z,22.60
2018-01-06T10:51:49.664Z,22.20
2018-01-06T10:54:22.371Z,22.20
2018-01-06T10:56:54.784Z,22.30
2018-01-06T10:59:27.970Z,22.30
2018-01-06T11:02:06.488Z,22.60
2018-01-06T11:04:39.645Z,21.70
2018-01-06T11:07:12.408Z,21.60
2018-01-06T11:09:45.816Z,21.70
2018-01-06T11:12:19.076Z,21.60
2018-01-06T11:14:51.617Z,21.70
2018-01-06T11:17:29.539Z,21.70
2018-01-06T11:20:03.110Z,21.80
2018-01-06T11:22:36.051Z,21.60
2018-01-06T11:25:09.678Z,21.60
2018-01-06T11:27:44.100Z,21.90
2018-01-06T11:30:16.563Z,21.70
2018-01-06T11:32:49.203Z,21.60
2018-01-06T11:35:22.433Z,21.70
2018-01-06T11:37:55.388Z,21.30
2018-01-06T11:40:28.621Z,21.70
2018-01-06T11:43:01.484Z,21.90
2018-01-06T11:45:33.973Z,21.80
2018-01-06T11:48:08.113Z,21.60
2018-01-06T11:50:41.598Z,21.80
2018-01-06T11:53:15.080Z,22.00
2018-01-06T11:55:48.392Z,22.50
2018-01-06T11:58:21.444Z,22.20
2018-01-06T12:00:53.854Z,22.40
2018-01-06T12:03:26.629Z,22.70
2018-01-06T12:05:59.098Z,22.60
2018-01-06T12:08:31.593Z,22.70
2018-01-06T12:11:04.362Z,22.80
2018-01-06T12:13:36.961Z,22.90
2018-01-06T12:16:09.601Z,23.00
2018-01-06T12:19:11.128Z,22.80
2018-01-06T12:21:44.342Z,22.90
2018-01-06T12:24:17.035Z,22.90
2018-01-06T12:26:50.550Z,22.90
2018-01-06T12:29:24.148Z,22.90
2018-01-06T12:31:56.836Z,22.90
2018-01-06T12:34:30.105Z,23.00
2018-01-06T12:37:02.790Z,23.00
2018-01-06T12:39:35.377Z,22.90
2018-01-06T12:42:07.888Z,22.90
2018-01-06T12:44:40.467Z,22.90
2018-01-06T12:47:12.975Z,22.80
2018-01-06T12:49:45.963Z,22.80
2018-01-06T12:52:19.214Z,22.80
2018-01-06T12:54:52.702Z,22.70
2018-01-06T12:57:29.452Z,22.60
2018-01-06T13:00:03.047Z,22.70
2018-01-06T13:02:35.957Z,22.80
2018-01-06T13:05:08.642Z,22.70
2018-01-06T13:07:41.304Z,22.70
2018-01-06T13:10:15.454Z,22.70
2018-01-06T13:12:48.789Z,22.50
2018-01-06T13:15:21.397Z,22.70
2018-01-06T13:17:55.148Z,22.80
2018-01-06T13:20:35.088Z,22.60
2018-01-06T13:23:08.460Z,22.70
2018-01-06T13:25:41.589Z,22.80
2018-01-06T13:28:16.273Z,22.50
2018-01-06T13:30:50.337Z,22.70
2018-01-06T13:33:22.676Z,22.40
2018-01-06T13:35:55.396Z,21.80
2018-01-06T13:38:27.869Z,21.70
2018-01-06T13:41:00.599Z,22.00
2018-01-06T13:43:33.249Z,22.40
2018-01-06T13:46:06.928Z,22.60
2018-01-06T13:48:40.455Z,22.60
2018-01-06T13:51:13.743Z,22.70
2018-01-06T13:53:46.264Z,22.80
2018-01-06T13:56:19.060Z,22.80
2018-01-06T13:58:51.771Z,22.90
2018-01-06T14:01:24.669Z,23.00
2018-01-06T14:03:57.360Z,23.10
2018-01-06T14:06:30.049Z,23.00
2018-01-06T14:09:02.729Z,22.70
2018-01-06T14:11:36.895Z,23.40
2018-01-06T14:14:09.265Z,23.10
2018-01-06T14:16:41.856Z,23.40
2018-01-06T14:19:15.306Z,23.50
2018-01-06T14:24:52.066Z,23.40
2018-01-06T14:27:24.551Z,23.60
2018-01-06T14:29:57.955Z,23.50
2018-01-06T14:32:31.211Z,23.30
2018-01-06T14:35:04.784Z,23.30
2018-01-06T14:37:37.648Z,23.50
2018-01-06T14:40:10.241Z,23.30
2018-01-06T14:42:42.997Z,23.40
2018-01-06T14:45:16.592Z,23.30
2018-01-06T14:47:49.249Z,23.10
2018-01-06T14:50:22.618Z,23.10
2018-01-06T14:52:56.437Z,23.00
2018-01-06T14:55:29.169Z,22.80
2018-01-06T14:58:02.288Z,22.90
2018-01-06T15:00:34.958Z,22.90
2018-01-06T15:03:07.942Z,22.50
2018-01-06T15:05:40.609Z,22.70
2018-01-06T15:08:13.742Z,22.80
2018-01-06T15:10:47.001Z,22.70
2018-01-06T15:13:20.142Z,22.70
2018-01-06T15:15:53.709Z,22.90
2018-01-06T15:18:27.427Z,22.90
2018-01-06T15:21:00.395Z,22.90
2018-01-06T15:23:34.097Z,23.00
2018-01-06T15:26:07.161Z,23.30
2018-01-06T15:28:39.861Z,23.00
2018-01-06T15:31:12.829Z,23.10
2018-01-06T15:33:45.828Z,23.20
2018-01-06T15:36:18.370Z,23.30
2018-01-06T15:38:52.237Z,23.90
2018-01-06T15:41:26.295Z,23.90
2018-01-06T15:43:59.140Z,24.10
2018-01-06T15:46:31.549Z,23.90
2018-01-06T15:49:05.033Z,23.80
2018-01-06T15:51:37.908Z,23.90
2018-01-06T15:54:10.589Z,23.80
2018-01-06T15:56:43.257Z,23.80
2018-01-06T15:59:15.823Z,23.70
2018-01-06T16:01:48.271Z,23.50
2018-01-06T16:04:20.781Z,23.40
2018-01-06T16:10:01.937Z,23.30
2018-01-06T16:12:34.937Z,23.10
2018-01-06T16:15:08.288Z,22.80
2018-01-06T16:17:41.997Z,22.60
2018-01-06T16:20:15.184Z,22.90
2018-01-06T16:22:47.993Z,22.70
2018-01-06T16:25:20.623Z,22.60
2018-01-06T16:27:53.970Z,22.70
2018-01-06T16:30:26.798Z,22.10
2018-01-06T16:33:00.024Z,23.10
2018-01-06T16:35:33.943Z,23.20
2018-01-06T16:38:07.704Z,23.10
2018-01-06T16:40:41.068Z,23.30
2018-01-06T16:43:15.111Z,22.80
2018-01-06T16:45:47.763Z,22.50
2018-01-06T16:48:20.093Z,22.90
2018-01-06T16:50:52.572Z,23.20
2018-01-06T16:53:26.562Z,23.30
2018-01-06T16:55:59.359Z,22.90
2018-01-06T16:58:31.881Z,23.40
2018-01-06T17:01:04.358Z,23.40
2018-01-06T17:03:36.807Z,23.50
2018-01-06T17:06:10.788Z,22.50
2018-01-06T17:08:43.893Z,22.60
2018-01-06T17:11:18.007Z,22.70
2018-01-06T17:13:51.249Z,22.60
2018-01-06T17:16:23.843Z,22.30
2018-01-06T17:18:57.212Z,22.00
2018-01-06T17:21:30.017Z,21.90
2018-01-06T17:24:02.951Z,22.30
2018-01-06T17:26:36.736Z,23.00
2018-01-06T17:29:09.385Z,23.30
2018-01-06T17:31:41.925Z,23.20
2018-01-06T17:34:14.411Z,23.30
2018-01-06T17:36:46.882Z,23.40
2018-01-06T17:39:19.972Z,23.40
2018-01-06T17:41:53.397Z,23.50
2018-01-06T17:44:30.093Z,23.20
2018-01-06T17:47:02.993Z,23.50
2018-01-06T17:49:35.462Z,23.50
2018-01-06T17:52:07.912Z,23.50
2018-01-06T17:54:40.390Z,23.60
2018-01-06T17:57:13.880Z,23.30
2018-01-06T17:59:46.525Z,23.20
2018-01-06T18:02:18.867Z,23.20
2018-01-06T18:04:51.274Z,23.10
2018-01-06T18:07:24.354Z,22.80
2018-01-06T18:09:58.693Z,22.70
2018-01-06T18:12:31.483Z,22.60
2018-01-06T18:15:04.742Z,22.50
2018-01-06T18:17:38.364Z,22.70
2018-01-06T18:20:10.989Z,22.50
2018-01-06T18:22:43.511Z,22.40
2018-01-06T18:25:16.098Z,22.30
2018-01-06T18:27:48.625Z,22.30
2018-01-06T18:30:21.961Z,22.40
2018-01-06T18:32:54.401Z,22.50
2018-01-06T18:35:26.946Z,22.70
2018-01-06T18:38:00.089Z,22.80
2018-01-06T18:40:32.840Z,22.60
2018-01-06T18:43:05.309Z,22.90
2018-01-06T18:45:37.976Z,23.00
2018-01-06T18:48:11.930Z,23.10
2018-01-06T18:50:44.617Z,22.90
2018-01-06T18:53:17.001Z,23.10
2018-01-06T18:55:49.530Z,23.20
2018-01-06T18:58:22.338Z,23.40
2018-01-06T19:00:55.522Z,23.10
2018-01-06T19:03:28.385Z,23.40
2018-01-06T19:06:02.452Z,23.20
2018-01-06T19:08:35.628Z,22.90
2018-01-06T19:11:09.008Z,22.90
2018-01-06T19:13:42.472Z,22.80
2018-01-06T19:16:16.313Z,22.70
2018-01-06T19:18:49.651Z,22.70
2018-01-06T19:21:22.096Z,22.60
2018-01-06T19:23:54.672Z,22.50
2018-01-06T19:26:27.139Z,22.50
2018-01-06T19:28:59.553Z,22.40
2018-01-06T19:31:32.920Z,22.40
2018-01-06T19:34:05.712Z,22.70
2018-01-06T19:36:38.443Z,22.40
2018-01-06T19:39:11.080Z,22.40
2018-01-06T19:41:43.812Z,22.70
2018-01-06T19:44:17.189Z,22.70
2018-01-06T19:46:49.912Z,22.60
2018-01-06T19:49:22.648Z,22.80
2018-01-06T19:51:55.150Z,22.80
2018-01-06T19:54:27.871Z,22.80
2018-01-06T19:57:00.270Z,22.80
2018-01-06T19:59:33.452Z,23.20
2018-01-06T20:02:06.381Z,22.90
2018-01-06T20:04:39.282Z,22.80
2018-01-06T20:07:17.450Z,22.80
2018-01-06T20:09:49.956Z,22.80
2018-01-06T20:12:22.516Z,22.80
2018-01-06T20:14:55.155Z,22.80
2018-01-06T20:17:27.797Z,22.90
2018-01-06T20:20:00.757Z,22.80
2018-01-06T20:22:34.238Z,22.80
2018-01-06T20:25:07.035Z,22.80
2018-01-06T20:27:39.783Z,22.80
2018-01-06T20:30:12.453Z,22.70
2018-01-06T20:32:45.143Z,22.70
2018-01-06T20:35:17.811Z,22.70
2018-01-06T20:37:50.490Z,22.70
2018-01-06T20:40:23.094Z,22.60
2018-01-06T20:42:55.605Z,22.60
2018-01-06T20:45:29.405Z,22.60
2018-01-06T20:48:02.666Z,22.70
2018-01-06T20:50:35.600Z,22.70
2018-01-06T20:53:08.391Z,22.60
2018-01-06T20:55:40.810Z,22.70
2018-01-06T20:58:13.409Z,22.70
2018-01-06T21:00:46.086Z,22.60
2018-01-06T21:03:19.100Z,22.60
2018-01-06T21:05:53.206Z,22.70
2018-01-06T21:08:27.013Z,22.70
2018-01-06T21:10:59.473Z,22.50
2018-01-06T21:13:32.853Z,22.70
2018-01-06T21:16:06.238Z,22.80
2018-01-06T21:18:39.017Z,22.70
2018-01-06T21:21:11.627Z,22.90
2018-01-06T21:23:44.264Z,23.00
2018-01-06T21:26:17.397Z,23.00
2018-01-06T21:28:49.902Z,23.10
2018-01-06T21:31:22.511Z,23.10
2018-01-06T21:33:55.157Z,23.10
2018-01-06T21:36:28.055Z,23.20
2018-01-06T21:39:01.016Z,23.30
2018-01-06T21:41:33.912Z,23.10
2018-01-06T21:44:06.292Z,23.00
2018-01-06T21:46:39.171Z,23.00
2018-01-06T21:49:11.835Z,23.00
2018-01-06T21:51:46.083Z,22.70
2018-01-06T21:54:19.926Z,22.80
2018-01-06T21:56:52.726Z,22.70
2018-01-06T21:59:25.340Z,22.70
2018-01-06T22:01:57.876Z,22.60
2018-01-06T22:04:30.394Z,22.60
2018-01-06T22:07:03.013Z,22.50
2018-01-06T22:09:36.446Z,22.40
2018-01-06T22:12:08.960Z,22.40
2018-01-06T22:14:41.328Z,22.30
2018-01-06T22:17:13.937Z,22.20
2018-01-06T22:19:46.555Z,22.00
2018-01-06T22:22:19.901Z,22.10
2018-01-06T22:24:52.474Z,22.10
2018-01-06T22:27:24.843Z,22.00
2018-01-06T22:29:58.131Z,22.00
2018-01-06T22:32:30.621Z,22.00
2018-01-06T22:35:03.850Z,22.00
2018-01-06T22:37:36.624Z,22.10
2018-01-06T22:40:09.890Z,22.00
2018-01-06T22:42:42.863Z,21.70
2018-01-06T22:45:15.203Z,21.90
2018-01-06T22:47:47.724Z,21.70
2018-01-06T22:50:20.216Z,22.00
2018-01-06T22:52:52.703Z,21.80
2018-01-06T22:55:25.330Z,22.10
2018-01-06T22:57:57.865Z,21.80
2018-01-06T23:00:35.286Z,21.80
2018-01-06T23:03:07.826Z,21.70
2018-01-06T23:05:40.981Z,21.70
2018-01-06T23:08:13.355Z,21.70
2018-01-06T23:10:45.858Z,22.00
2018-01-06T23:13:19.974Z,22.00
2018-01-06T23:15:52.892Z,21.70
2018-01-06T23:18:26.821Z,22.10
2018-01-06T23:20:59.611Z,21.30
2018-01-06T23:23:32.216Z,22.10
2018-01-06T23:26:05.658Z,21.90
2018-01-06T23:28:38.164Z,22.00
2018-01-06T23:31:10.873Z,21.70
2018-01-06T23:33:43.365Z,21.80
2018-01-06T23:36:16.248Z,22.10
2018-01-06T23:38:48.902Z,22.00
2018-01-06T23:41:22.166Z,21.30
2018-01-06T23:43:55.979Z,21.10
2018-01-06T23:46:29.854Z,21.00
2018-01-06T23:49:03.029Z,21.30
2018-01-06T23:51:35.885Z,20.90
2018-01-06T23:54:08.663Z,20.60
2018-01-06T23:56:41.272Z,20.80
2018-01-06T23:59:14.600Z,20.60
